createdAt,value
2018-12-26T00:01:09.798Z,6.60
2018-12-26T00:03:40.512Z,6.60
2018-12-26T00:06:11.123Z,6.50
2018-12-26T00:08:42.645Z,6.50
2018-12-26T00:11:13.019Z,6.50
2018-12-26T00:13:44.113Z,6.50
2018-12-26T00:16:14.432Z,6.50
2018-12-26T00:18:44.991Z,6.50
2018-12-26T00:21:15.424Z,6.60
2018-12-26T00:23:45.769Z,6.60
2018-12-26T00:26:16.213Z,6.50
2018-12-26T00:28:46.873Z,6.60
2018-12-26T00:31:17.202Z,6.60
2018-12-26T00:33:47.934Z,6.60
2018-12-26T00:36:18.258Z,6.60
2018-12-26T00:38:48.892Z,6.60
2018-12-26T00:41:19.515Z,6.60
2018-12-26T00:43:49.870Z,6.60
2018-12-26T00:46:20.190Z,6.60
2018-12-26T00:48:50.554Z,6.60
2018-12-26T00:51:22.426Z,6.70
2018-12-26T00:54:01.491Z,6.70
2018-12-26T00:56:31.814Z,6.70
2018-12-26T00:59:02.923Z,6.70
2018-12-26T01:01:33.313Z,6.70
2018-12-26T01:04:03.635Z,6.70
2018-12-26T01:06:34.622Z,6.70
2018-12-26T01:09:07.586Z,6.70
2018-12-26T01:11:37.939Z,6.70
2018-12-26T01:14:08.261Z,6.60
2018-12-26T01:16:38.759Z,6.70
2018-12-26T01:19:09.393Z,6.70
2018-12-26T01:21:40.146Z,6.70
2018-12-26T01:24:10.910Z,6.70
2018-12-26T01:26:41.230Z,6.70
2018-12-26T01:29:11.928Z,6.70
2018-12-26T01:31:42.266Z,6.80
2018-12-26T01:34:12.879Z,6.70
2018-12-26T01:36:43.563Z,6.70
2018-12-26T01:39:14.517Z,6.70
2018-12-26T01:41:44.852Z,6.70
2018-12-26T01:44:15.836Z,6.60
2018-12-26T01:46:46.346Z,6.70
2018-12-26T01:49:16.688Z,6.60
2018-12-26T01:51:47.006Z,6.60
2018-12-26T01:54:17.692Z,6.60
2018-12-26T01:56:48.044Z,6.60
2018-12-26T01:59:18.566Z,6.60
2018-12-26T02:01:48.913Z,6.60
2018-12-26T02:04:19.308Z,6.60
2018-12-26T02:06:49.648Z,6.60
2018-12-26T02:09:20.773Z,6.60
2018-12-26T02:11:51.778Z,6.60
2018-12-26T02:14:22.675Z,6.60
2018-12-26T02:16:53.711Z,6.60
2018-12-26T02:19:24.005Z,6.60
2018-12-26T02:21:54.347Z,6.60
2018-12-26T02:24:27.736Z,6.60
2018-12-26T02:26:58.052Z,6.60
2018-12-26T02:29:28.679Z,6.60
2018-12-26T02:31:59.318Z,6.60
2018-12-26T02:34:29.636Z,6.60
2018-12-26T02:37:00.256Z,6.60
2018-12-26T02:39:30.987Z,6.60
2018-12-26T02:42:01.586Z,6.60
2018-12-26T02:44:32.270Z,6.60
2018-12-26T02:47:03.039Z,6.60
2018-12-26T02:49:33.770Z,6.60
2018-12-26T02:52:04.085Z,6.50
2018-12-26T02:54:34.545Z,6.50
2018-12-26T02:57:05.134Z,6.50
2018-12-26T02:59:35.455Z,6.50
2018-12-26T03:02:06.237Z,6.50
2018-12-26T03:04:36.557Z,6.50
2018-12-26T03:07:07.259Z,6.50
2018-12-26T03:09:37.619Z,6.40
2018-12-26T03:12:08.340Z,6.50
2018-12-26T03:14:38.698Z,6.40
2018-12-26T03:17:09.056Z,6.40
2018-12-26T03:19:39.430Z,6.40
2018-12-26T03:22:09.748Z,6.40
2018-12-26T03:24:40.231Z,6.40
2018-12-26T03:27:10.584Z,6.40
2018-12-26T03:29:40.904Z,6.40
2018-12-26T03:32:11.306Z,6.40
2018-12-26T03:34:41.639Z,6.40
2018-12-26T03:37:12.256Z,6.40
2018-12-26T03:39:43.137Z,6.50
2018-12-26T03:42:13.833Z,6.50
2018-12-26T03:44:44.161Z,6.40
2018-12-26T03:47:14.532Z,6.40
2018-12-26T03:49:45.127Z,6.50
2018-12-26T03:52:15.455Z,6.50
2018-12-26T03:54:46.504Z,6.50
2018-12-26T03:57:17.009Z,6.50
2018-12-26T03:59:47.729Z,6.50
2018-12-26T04:02:18.476Z,6.50
2018-12-26T04:04:48.837Z,6.50
2018-12-26T04:07:19.167Z,6.50
2018-12-26T04:09:49.924Z,6.50
2018-12-26T04:12:20.523Z,6.50
2018-12-26T04:14:51.186Z,6.50
2018-12-26T04:17:21.875Z,6.50
2018-12-26T04:19:52.781Z,6.50
2018-12-26T04:22:23.479Z,6.50
2018-12-26T04:24:53.869Z,6.50
2018-12-26T04:27:24.217Z,6.50
2018-12-26T04:29:54.843Z,6.50
2018-12-26T04:32:25.650Z,6.50
2018-12-26T04:34:56.400Z,6.50
2018-12-26T04:37:26.726Z,6.50
2018-12-26T04:39:57.150Z,6.50
2018-12-26T04:42:27.479Z,6.40
2018-12-26T04:44:57.816Z,6.50
2018-12-26T04:47:28.518Z,6.50
2018-12-26T04:49:58.968Z,6.50
2018-12-26T04:52:29.279Z,6.50
2018-12-26T04:54:59.704Z,6.50
2018-12-26T04:57:33.057Z,6.50
2018-12-26T05:00:05.229Z,6.50
2018-12-26T05:02:35.590Z,6.50
2018-12-26T05:05:06.289Z,6.50
2018-12-26T05:07:37.006Z,6.40
2018-12-26T05:10:08.059Z,6.40
2018-12-26T05:12:38.771Z,6.30
2018-12-26T05:15:09.818Z,6.30
2018-12-26T05:17:40.761Z,6.30
2018-12-26T05:20:11.218Z,6.30
2018-12-26T05:22:41.822Z,6.20
2018-12-26T05:25:12.333Z,6.20
2018-12-26T05:27:43.251Z,6.20
2018-12-26T05:30:13.899Z,6.20
2018-12-26T05:32:44.259Z,6.20
2018-12-26T05:35:14.622Z,6.20
2018-12-26T05:37:45.317Z,6.30
2018-12-26T05:40:16.059Z,6.20
2018-12-26T05:42:46.666Z,6.20
2018-12-26T05:45:17.701Z,6.20
2018-12-26T05:47:48.076Z,6.20
2018-12-26T05:50:18.433Z,6.10
2018-12-26T05:52:48.765Z,6.10
2018-12-26T05:55:19.926Z,6.10
2018-12-26T05:57:50.289Z,6.20
2018-12-26T06:00:20.618Z,6.10
2018-12-26T06:02:51.311Z,6.10
2018-12-26T06:05:22.009Z,6.10
2018-12-26T06:07:53.088Z,6.10
2018-12-26T06:10:23.672Z,6.10
2018-12-26T06:12:54.003Z,6.20
2018-12-26T06:15:25.420Z,6.10
2018-12-26T06:17:56.129Z,6.10
2018-12-26T06:20:26.781Z,6.10
2018-12-26T06:22:57.131Z,6.00
2018-12-26T06:25:27.612Z,6.00
2018-12-26T06:27:58.021Z,6.00
2018-12-26T06:30:28.690Z,6.00
2018-12-26T06:32:59.443Z,6.00
2018-12-26T06:35:30.175Z,6.00
2018-12-26T06:38:01.560Z,5.90
2018-12-26T06:40:32.599Z,5.90
2018-12-26T06:43:02.970Z,5.80
2018-12-26T06:45:33.663Z,5.80
2018-12-26T06:48:04.365Z,5.80
2018-12-26T06:50:35.091Z,5.80
2018-12-26T06:53:05.740Z,5.90
2018-12-26T06:55:36.139Z,5.90
2018-12-26T06:58:06.469Z,5.80
2018-12-26T07:00:37.174Z,5.80
2018-12-26T07:03:07.536Z,5.80
2018-12-26T07:05:37.863Z,5.80
2018-12-26T07:08:08.191Z,5.80
2018-12-26T07:10:38.568Z,5.80
2018-12-26T07:13:08.898Z,5.80
2018-12-26T07:15:39.253Z,5.80
2018-12-26T07:18:09.931Z,5.80
2018-12-26T07:20:40.691Z,5.80
2018-12-26T07:23:11.033Z,5.80
2018-12-26T07:25:41.718Z,5.80
2018-12-26T07:28:12.349Z,5.70
2018-12-26T07:30:42.762Z,5.70
2018-12-26T07:33:13.401Z,5.70
2018-12-26T07:35:44.034Z,5.70
2018-12-26T07:38:14.993Z,5.70
2018-12-26T07:40:45.385Z,5.70
2018-12-26T07:43:15.711Z,5.70
2018-12-26T07:45:46.415Z,5.70
2018-12-26T07:48:16.792Z,5.80
2018-12-26T07:50:47.790Z,5.80
2018-12-26T07:53:18.128Z,5.80
2018-12-26T07:55:48.506Z,5.80
2018-12-26T07:58:19.253Z,5.80
2018-12-26T08:00:49.666Z,5.80
2018-12-26T08:03:20.034Z,5.80
2018-12-26T08:05:50.932Z,5.90
2018-12-26T08:08:21.290Z,5.90
2018-12-26T08:10:51.668Z,5.90
2018-12-26T08:13:22.002Z,5.90
2018-12-26T08:15:52.353Z,5.90
2018-12-26T08:18:22.729Z,5.80
2018-12-26T08:20:53.952Z,5.80
2018-12-26T08:23:24.781Z,5.90
2018-12-26T08:25:55.993Z,5.90
2018-12-26T08:28:27.055Z,5.90
2018-12-26T08:30:57.793Z,5.90
2018-12-26T08:33:28.178Z,5.90
2018-12-26T08:35:58.852Z,5.90
2018-12-26T08:38:29.183Z,5.90
2018-12-26T08:40:59.863Z,6.00
2018-12-26T08:43:30.197Z,6.00
2018-12-26T08:46:00.516Z,6.00
2018-12-26T08:48:31.200Z,6.00
2018-12-26T08:51:01.836Z,6.00
2018-12-26T08:53:32.481Z,6.00
2018-12-26T08:56:02.941Z,6.00
2018-12-26T08:58:35.246Z,6.00
2018-12-26T09:01:05.775Z,6.00
2018-12-26T09:03:36.426Z,6.00
2018-12-26T09:06:07.044Z,6.00
2018-12-26T09:08:37.716Z,6.00
2018-12-26T09:11:08.125Z,6.10
2018-12-26T09:13:38.455Z,6.10
2018-12-26T09:16:09.175Z,6.10
2018-12-26T09:18:39.627Z,6.10
2018-12-26T09:21:09.975Z,6.10
2018-12-26T09:23:40.334Z,6.20
2018-12-26T09:26:11.127Z,6.20
2018-12-26T09:28:43.869Z,6.20
2018-12-26T09:31:13.574Z,6.20
2018-12-26T09:33:44.229Z,6.10
2018-12-26T09:36:15.069Z,6.20
2018-12-26T09:38:45.399Z,6.20
2018-12-26T09:41:15.796Z,6.20
2018-12-26T09:43:46.153Z,6.10
2018-12-26T09:46:16.823Z,6.10
2018-12-26T09:48:47.855Z,6.10
2018-12-26T09:51:18.213Z,6.00
2018-12-26T09:53:50.191Z,6.10
2018-12-26T09:56:21.054Z,6.10
2018-12-26T09:58:52.573Z,6.10
2018-12-26T10:01:23.445Z,6.10
2018-12-26T10:03:54.178Z,6.10
2018-12-26T10:06:24.785Z,6.10
2018-12-26T10:08:55.480Z,6.00
2018-12-26T10:11:26.211Z,6.00
2018-12-26T10:13:57.157Z,6.00
2018-12-26T10:16:27.895Z,6.00
2018-12-26T10:18:58.299Z,6.00
2018-12-26T10:21:28.657Z,6.00
2018-12-26T10:23:59.007Z,5.90
2018-12-26T10:26:29.715Z,5.90
2018-12-26T10:29:00.999Z,5.90
2018-12-26T10:31:31.957Z,5.90
2018-12-26T10:34:02.305Z,5.90
2018-12-26T10:36:32.657Z,5.90
2018-12-26T10:39:03.932Z,5.80
2018-12-26T10:41:34.314Z,5.90
2018-12-26T10:44:04.651Z,5.90
2018-12-26T10:46:34.997Z,5.90
2018-12-26T10:49:05.727Z,5.90
2018-12-26T10:52:46.516Z,5.90
2018-12-26T10:55:16.933Z,5.90
2018-12-26T10:57:47.569Z,5.90
2018-12-26T11:00:17.899Z,5.90
2018-12-26T11:02:48.671Z,5.90
2018-12-26T11:05:18.995Z,5.90
2018-12-26T11:07:49.691Z,5.90
2018-12-26T11:10:20.335Z,5.90
2018-12-26T11:12:50.685Z,5.90
2018-12-26T11:15:21.379Z,5.90
2018-12-26T11:17:52.254Z,5.90
2018-12-26T11:20:22.618Z,5.90
2018-12-26T11:22:53.274Z,5.90
2018-12-26T11:25:24.437Z,5.90
2018-12-26T11:27:54.763Z,5.90
2018-12-26T11:30:25.109Z,5.90
2018-12-26T11:32:55.513Z,5.90
2018-12-26T11:35:26.547Z,5.90
2018-12-26T11:37:56.905Z,5.80
2018-12-26T11:40:27.730Z,5.80
2018-12-26T11:42:58.060Z,5.80
2018-12-26T11:45:28.457Z,5.90
2018-12-26T11:47:59.147Z,5.90
2018-12-26T11:50:29.756Z,5.80
2018-12-26T11:53:00.515Z,5.80
2018-12-26T11:55:31.216Z,5.80
2018-12-26T11:58:01.571Z,5.90
2018-12-26T12:00:32.456Z,5.90
2018-12-26T12:03:03.237Z,5.90
2018-12-26T12:05:33.617Z,6.00
2018-12-26T12:08:03.974Z,5.90
2018-12-26T12:10:34.331Z,5.90
2018-12-26T12:13:04.663Z,5.90
2018-12-26T12:15:35.050Z,5.90
2018-12-26T12:18:05.429Z,5.90
2018-12-26T12:20:36.061Z,5.80
2018-12-26T12:23:06.787Z,5.80
2018-12-26T12:25:37.527Z,5.90
2018-12-26T12:28:07.867Z,5.90
2018-12-26T12:30:38.197Z,5.90
2018-12-26T12:33:08.885Z,5.90
2018-12-26T12:35:39.628Z,5.90
2018-12-26T12:38:10.544Z,6.00
2018-12-26T12:40:41.005Z,6.00
2018-12-26T12:43:12.339Z,6.00
2018-12-26T12:45:43.067Z,6.00
2018-12-26T12:48:13.472Z,6.00
2018-12-26T12:50:44.123Z,6.00
2018-12-26T12:53:14.457Z,6.00
2018-12-26T12:55:45.681Z,6.00
2018-12-26T12:58:16.641Z,6.00
2018-12-26T13:00:47.299Z,6.00
2018-12-26T13:03:17.668Z,6.10
2018-12-26T13:05:48.002Z,6.10
2018-12-26T13:08:18.719Z,6.10
2018-12-26T13:10:49.414Z,6.10
2018-12-26T13:13:20.134Z,6.10
2018-12-26T13:15:50.494Z,6.10
2018-12-26T13:18:21.357Z,6.10
2018-12-26T13:20:51.770Z,6.10
2018-12-26T13:23:22.125Z,6.20
2018-12-26T13:25:52.529Z,6.20
2018-12-26T13:28:23.230Z,6.20
2018-12-26T13:30:53.581Z,6.20
2018-12-26T13:33:25.637Z,6.20
2018-12-26T13:35:55.970Z,6.20
2018-12-26T13:38:26.325Z,6.20
2018-12-26T13:40:57.326Z,6.20
2018-12-26T13:43:27.679Z,6.20
2018-12-26T13:45:58.034Z,6.20
2018-12-26T13:48:28.849Z,6.20
2018-12-26T13:50:59.182Z,6.30
2018-12-26T13:53:29.656Z,6.30
2018-12-26T13:56:00.445Z,6.30
2018-12-26T13:58:31.148Z,6.30
2018-12-26T14:01:03.021Z,6.30
2018-12-26T14:03:33.691Z,6.30
2018-12-26T14:06:04.576Z,6.30
2018-12-26T14:08:34.908Z,6.30
2018-12-26T14:11:05.364Z,6.30
2018-12-26T14:13:36.062Z,6.30
2018-12-26T14:16:06.698Z,6.30
2018-12-26T14:18:37.536Z,6.30
2018-12-26T14:21:07.867Z,6.30
2018-12-26T14:23:38.197Z,6.30
2018-12-26T14:26:08.975Z,6.30
2018-12-26T14:28:39.330Z,6.30
2018-12-26T14:31:09.660Z,6.40
2018-12-26T14:33:40.394Z,6.40
2018-12-26T14:36:10.752Z,6.40
2018-12-26T14:38:41.800Z,6.40
2018-12-26T14:41:12.178Z,6.30
2018-12-26T14:43:42.533Z,6.40
2018-12-26T14:46:13.196Z,6.40
2018-12-26T14:48:43.630Z,6.40
2018-12-26T14:51:13.991Z,6.50
2018-12-26T14:53:44.683Z,6.40
2018-12-26T14:56:15.017Z,6.40
2018-12-26T14:58:45.375Z,6.40
2018-12-26T15:01:15.725Z,6.40
2018-12-26T15:03:46.478Z,6.40
2018-12-26T15:06:17.192Z,6.50
2018-12-26T15:08:47.728Z,6.50
2018-12-26T15:11:18.113Z,6.50
2018-12-26T15:14:08.180Z,6.50
2018-12-26T15:16:51.825Z,6.50
2018-12-26T15:19:41.577Z,6.60
2018-12-26T15:22:26.854Z,6.60
2018-12-26T15:25:16.960Z,6.70
2018-12-26T15:28:00.115Z,6.60
2018-12-26T15:30:50.194Z,6.70
2018-12-26T15:33:33.111Z,6.70
2018-12-26T15:36:23.207Z,6.70
2018-12-26T15:39:07.800Z,6.70
2018-12-26T15:41:57.827Z,6.60
2018-12-26T15:44:42.635Z,6.70
2018-12-26T15:47:32.722Z,6.70
2018-12-26T15:50:17.462Z,6.70
2018-12-26T15:57:07.272Z,6.70
2018-12-26T15:59:57.418Z,6.70
2018-12-26T16:02:40.434Z,6.70
2018-12-26T16:05:30.192Z,6.80
2018-12-26T16:08:14.532Z,6.70
2018-12-26T16:11:04.989Z,6.80
2018-12-26T16:13:47.528Z,6.70
2018-12-26T16:16:37.653Z,6.80
2018-12-26T16:19:22.075Z,6.90
2018-12-26T16:22:11.836Z,6.80
2018-12-26T16:24:54.234Z,6.80
2018-12-26T16:27:44.256Z,6.70
2018-12-26T16:30:25.147Z,6.80
2018-12-26T16:36:16.602Z,6.80
2018-12-26T16:38:46.969Z,6.80
2018-12-26T16:41:36.749Z,6.90
2018-12-26T16:44:19.769Z,6.90
2018-12-26T16:47:02.960Z,6.90
2018-12-26T16:49:52.894Z,6.80
2018-12-26T16:52:35.736Z,6.90
2018-12-26T16:58:52.790Z,7.00
2018-12-26T17:01:42.560Z,7.00
2018-12-26T17:04:25.099Z,7.00
2018-12-26T17:07:14.855Z,6.90
2018-12-26T17:09:58.363Z,6.90
2018-12-26T17:12:48.119Z,6.90
2018-12-26T17:15:32.663Z,6.90
2018-12-26T17:18:22.442Z,6.90
2018-12-26T17:21:05.238Z,6.90
2018-12-26T17:26:56.551Z,7.00
2018-12-26T17:29:46.337Z,6.90
2018-12-26T17:32:28.712Z,7.00
2018-12-26T17:35:18.815Z,7.00
2018-12-26T17:38:01.697Z,7.00
2018-12-26T17:40:51.459Z,7.00
2018-12-26T17:43:36.080Z,7.00
2018-12-26T17:46:18.767Z,6.90
2018-12-26T17:49:08.615Z,7.00
2018-12-26T17:51:53.144Z,7.00
2018-12-26T17:55:04.263Z,7.00
2018-12-26T17:57:47.335Z,7.10
2018-12-26T18:04:06.247Z,7.10
2018-12-26T18:06:56.307Z,7.10
2018-12-26T18:09:38.973Z,7.10
2018-12-26T18:12:28.995Z,7.20
2018-12-26T18:15:09.967Z,7.10
2018-12-26T18:21:01.650Z,7.20
2018-12-26T18:23:51.434Z,7.20
2018-12-26T18:26:33.722Z,7.10
2018-12-26T18:29:23.838Z,7.20
2018-12-26T18:32:06.306Z,7.20
2018-12-26T18:34:56.342Z,7.20
2018-12-26T18:37:37.326Z,7.20
2018-12-26T18:40:27.116Z,7.20
2018-12-26T18:43:11.342Z,7.20
2018-12-26T18:46:01.127Z,7.10
2018-12-26T18:48:45.140Z,7.20
2018-12-26T18:51:35.274Z,7.10
2018-12-26T18:54:18.358Z,7.10
2018-12-26T18:57:08.597Z,7.10
2018-12-26T18:59:51.277Z,6.90
2018-12-26T19:02:41.321Z,7.00
2018-12-26T19:05:24.104Z,6.80
2018-12-26T19:08:13.902Z,6.90
2018-12-26T19:10:56.933Z,6.90
2018-12-26T19:13:46.718Z,6.90
2018-12-26T19:16:29.655Z,6.90
2018-12-26T19:19:20.067Z,6.90
2018-12-26T19:22:03.108Z,6.90
2018-12-26T19:24:52.860Z,6.90
2018-12-26T19:27:36.288Z,6.80
2018-12-26T19:30:26.361Z,6.90
2018-12-26T19:33:09.165Z,6.90
2018-12-26T19:39:26.406Z,7.00
2018-12-26T19:42:16.467Z,6.90
2018-12-26T19:45:00.872Z,6.80
2018-12-26T19:47:51.298Z,6.80
2018-12-26T19:50:35.672Z,6.90
2018-12-26T19:53:25.453Z,7.00
2018-12-26T19:56:07.845Z,7.00
2018-12-26T19:58:57.630Z,6.90
2018-12-26T20:01:48.122Z,7.00
2018-12-26T20:04:32.322Z,7.00
2018-12-26T20:07:15.051Z,7.00
2018-12-26T20:10:25.861Z,7.00
2018-12-26T20:13:06.533Z,7.00
2018-12-26T20:15:56.619Z,7.10
2018-12-26T20:18:39.209Z,7.00
2018-12-26T20:24:55.901Z,7.20
2018-12-26T20:27:46.058Z,7.20
2018-12-26T20:30:35.879Z,7.10
2018-12-26T20:33:18.774Z,7.20
2018-12-26T20:36:08.566Z,7.10
2018-12-26T20:38:50.842Z,7.30
2018-12-26T20:41:40.979Z,7.30
2018-12-26T20:44:25.460Z,7.30
2018-12-26T20:47:15.269Z,7.30
2018-12-26T20:49:59.853Z,7.40
2018-12-26T20:52:49.943Z,7.40
2018-12-26T20:55:32.978Z,7.50
2018-12-26T20:58:22.778Z,7.40
2018-12-26T21:01:03.450Z,7.40
2018-12-26T21:03:46.282Z,7.40
2018-12-26T21:06:36.062Z,7.30
2018-12-26T21:09:20.784Z,7.30
2018-12-26T21:12:10.568Z,7.30
2018-12-26T21:14:54.047Z,7.40
2018-12-26T21:17:44.087Z,7.40
2018-12-26T21:20:26.913Z,7.40
2018-12-26T21:23:16.676Z,7.40
2018-12-26T21:25:59.542Z,7.40
2018-12-26T21:28:42.294Z,7.40
2018-12-26T21:31:34.065Z,7.40
2018-12-26T21:34:36.232Z,7.40
2018-12-26T21:40:34.078Z,7.50
2018-12-26T21:43:24.070Z,7.40
2018-12-26T21:46:07.071Z,7.40
2018-12-26T21:48:56.966Z,7.50
2018-12-26T21:51:39.999Z,7.40
2018-12-26T21:54:29.789Z,7.40
2018-12-26T21:57:31.552Z,7.40
2018-12-26T22:00:21.635Z,7.40
2018-12-26T22:03:04.850Z,7.40
2018-12-26T22:05:55.233Z,7.30
2018-12-26T22:08:40.265Z,7.40
2018-12-26T22:11:30.061Z,7.40
2018-12-26T22:14:13.179Z,7.40
2018-12-26T22:17:03.238Z,7.40
2018-12-26T22:19:46.172Z,7.40
2018-12-26T22:22:55.092Z,7.50
2018-12-26T22:25:39.559Z,7.40
2018-12-26T22:28:22.247Z,7.30
2018-12-26T22:31:13.846Z,7.40
2018-12-26T22:33:56.797Z,7.40
2018-12-26T22:36:46.893Z,7.40
2018-12-26T22:39:29.553Z,7.30
2018-12-26T22:42:19.312Z,7.30
2018-12-26T22:45:01.754Z,7.30
2018-12-26T22:47:51.920Z,7.30
2018-12-26T22:50:35.875Z,7.30
2018-12-26T22:53:25.631Z,7.30
2018-12-26T22:56:10.355Z,7.30
2018-12-26T22:59:00.454Z,7.30
2018-12-26T23:01:43.580Z,7.20
2018-12-26T23:04:33.421Z,7.20
2018-12-26T23:07:18.420Z,7.20
2018-12-26T23:10:08.206Z,7.10
2018-12-26T23:12:51.294Z,7.20
2018-12-26T23:18:42.809Z,7.20
2018-12-26T23:21:32.661Z,7.20
2018-12-26T23:24:15.997Z,7.20
2018-12-26T23:26:58.571Z,7.20
2018-12-26T23:29:48.646Z,7.10
2018-12-26T23:32:31.854Z,7.10
2018-12-26T23:35:21.645Z,7.00
2018-12-26T23:38:04.159Z,7.10
2018-12-26T23:40:54.219Z,7.10
2018-12-26T23:43:38.422Z,7.10
2018-12-26T23:46:28.482Z,7.10
2018-12-26T23:49:09.420Z,7.10
2018-12-26T23:51:52.882Z,7.00
2018-12-26T23:54:42.973Z,7.00
2018-12-26T23:57:25.324Z,7.00
